Terminal Aerodrome Forecast
Issued by NWS

Home | Current Version | Previous Version | Text Only | Print | Product List | Glossary On
Versions: 1 2 3 4 5 6 7 8 9 10 11 12 13
000
FTUS43 KSGF 060500
TAFJLN
TAF
KJLN 060520Z 0606/0706 15010KT P6SM SCT050 BKN100 WS020/17040KT
     FM061000 16012G18KT P6SM VCSH BKN050 OVC080
      TEMPO 0612/0616 5SM TSRA OVC030CB
     FM061800 16015G22KT P6SM VCTS BKN050CB PROB30 0618/0622 5SM
      -TSRA BR OVC030CB
     FM062300 15014KT P6SM BKN200=

USA.gov is the U.S. government's official web portal to all federal, state and local government web resources and services.